sensor_id;sensor_type;location;lat;lon;timestamp;P1;durP1;ratioP1;P2;durP2;ratioP2
65583;SDS011;73032;43.592;1.458;2024-02-14T00:00:44;11.80;;;5.97;;
65583;SDS011;73032;43.592;1.458;2024-02-14T00:03:11;12.77;;;6.40;;
65583;SDS011;73032;43.592;1.458;2024-02-14T00:05:37;11.88;;;6.47;;
65583;SDS011;73032;43.592;1.458;2024-02-14T00:08:06;12.65;;;6.78;;
65583;SDS011;73032;43.592;1.458;2024-02-14T00:10:33;11.35;;;6.32;;
65583;SDS011;73032;43.592;1.458;2024-02-14T00:13:00;13.35;;;6.55;;
65583;SDS011;73032;43.592;1.458;2024-02-14T00:15:28;16.10;;;6.80;;
65583;SDS011;73032;43.592;1.458;2024-02-14T00:17:58;16.75;;;7.25;;
65583;SDS011;73032;43.592;1.458;2024-02-14T00:20:27;13.13;;;6.90;;
65583;SDS011;73032;43.592;1.458;2024-02-14T00:22:54;14.68;;;6.90;;
65583;SDS011;73032;43.592;1.458;2024-02-14T00:25:20;14.85;;;7.65;;
65583;SDS011;73032;43.592;1.458;2024-02-14T00:27:47;12.05;;;6.82;;
65583;SDS011;73032;43.592;1.458;2024-02-14T00:30:14;14.65;;;7.40;;
65583;SDS011;73032;43.592;1.458;2024-02-14T00:32:41;12.98;;;6.88;;
65583;SDS011;73032;43.592;1.458;2024-02-14T00:35:08;14.70;;;6.70;;
65583;SDS011;73032;43.592;1.458;2024-02-14T00:37:35;12.23;;;6.65;;
65583;SDS011;73032;43.592;1.458;2024-02-14T00:40:02;13.30;;;6.43;;
65583;SDS011;73032;43.592;1.458;2024-02-14T00:42:29;12.68;;;6.22;;
65583;SDS011;73032;43.592;1.458;2024-02-14T00:44:57;12.57;;;6.05;;
65583;SDS011;73032;43.592;1.458;2024-02-14T00:47:24;12.20;;;6.22;;
65583;SDS011;73032;43.592;1.458;2024-02-14T00:49:51;11.90;;;6.38;;
65583;SDS011;73032;43.592;1.458;2024-02-14T00:52:18;14.75;;;6.75;;
65583;SDS011;73032;43.592;1.458;2024-02-14T00:54:47;11.82;;;6.47;;
65583;SDS011;73032;43.592;1.458;2024-02-14T00:57:14;10.98;;;6.65;;
65583;SDS011;73032;43.592;1.458;2024-02-14T00:59:42;12.85;;;6.32;;
65583;SDS011;73032;43.592;1.458;2024-02-14T01:02:08;12.35;;;6.05;;
65583;SDS011;73032;43.592;1.458;2024-02-14T01:04:35;12.85;;;6.10;;
65583;SDS011;73032;43.592;1.458;2024-02-14T01:07:03;11.60;;;6.18;;
65583;SDS011;73032;43.592;1.458;2024-02-14T01:09:30;13.82;;;6.30;;
65583;SDS011;73032;43.592;1.458;2024-02-14T01:11:58;11.77;;;5.90;;
65583;SDS011;73032;43.592;1.458;2024-02-14T01:14:25;10.18;;;6.10;;
65583;SDS011;73032;43.592;1.458;2024-02-14T01:16:52;12.68;;;6.32;;
65583;SDS011;73032;43.592;1.458;2024-02-14T01:19:20;11.27;;;5.90;;
65583;SDS011;73032;43.592;1.458;2024-02-14T01:21:47;11.68;;;5.93;;
65583;SDS011;73032;43.592;1.458;2024-02-14T01:24:15;11.00;;;6.10;;
65583;SDS011;73032;43.592;1.458;2024-02-14T01:26:42;11.80;;;6.07;;
65583;SDS011;73032;43.592;1.458;2024-02-14T01:29:09;11.52;;;6.05;;
65583;SDS011;73032;43.592;1.458;2024-02-14T01:31:36;9.38;;;5.80;;
65583;SDS011;73032;43.592;1.458;2024-02-14T01:34:03;9.82;;;5.82;;
65583;SDS011;73032;43.592;1.458;2024-02-14T01:36:33;11.35;;;5.82;;
65583;SDS011;73032;43.592;1.458;2024-02-14T01:39:00;10.20;;;5.40;;
65583;SDS011;73032;43.592;1.458;2024-02-14T01:41:26;9.82;;;5.10;;
65583;SDS011;73032;43.592;1.458;2024-02-14T01:43:53;8.55;;;4.80;;
65583;SDS011;73032;43.592;1.458;2024-02-14T01:46:20;9.40;;;4.93;;
65583;SDS011;73032;43.592;1.458;2024-02-14T01:48:47;9.02;;;5.30;;
65583;SDS011;73032;43.592;1.458;2024-02-14T01:51:14;9.68;;;4.90;;
65583;SDS011;73032;43.592;1.458;2024-02-14T01:53:43;8.63;;;4.90;;
65583;SDS011;73032;43.592;1.458;2024-02-14T01:56:11;10.43;;;4.82;;
65583;SDS011;73032;43.592;1.458;2024-02-14T01:58:38;8.73;;;4.88;;
65583;SDS011;73032;43.592;1.458;2024-02-14T02:01:09;7.40;;;4.28;;
65583;SDS011;73032;43.592;1.458;2024-02-14T02:03:36;7.53;;;4.50;;
65583;SDS011;73032;43.592;1.458;2024-02-14T02:06:05;8.40;;;4.43;;
65583;SDS011;73032;43.592;1.458;2024-02-14T02:08:35;7.63;;;4.35;;
65583;SDS011;73032;43.592;1.458;2024-02-14T02:11:05;8.50;;;3.83;;
65583;SDS011;73032;43.592;1.458;2024-02-14T02:13:35;9.00;;;4.32;;
65583;SDS011;73032;43.592;1.458;2024-02-14T02:16:05;8.15;;;4.10;;
65583;SDS011;73032;43.592;1.458;2024-02-14T02:18:32;7.50;;;4.40;;
65583;SDS011;73032;43.592;1.458;2024-02-14T02:20:59;9.18;;;4.18;;
65583;SDS011;73032;43.592;1.458;2024-02-14T02:23:26;6.82;;;3.80;;
65583;SDS011;73032;43.592;1.458;2024-02-14T02:25:52;7.25;;;3.83;;
65583;SDS011;73032;43.592;1.458;2024-02-14T02:28:19;6.75;;;4.10;;
65583;SDS011;73032;43.592;1.458;2024-02-14T02:30:46;7.97;;;3.83;;
65583;SDS011;73032;43.592;1.458;2024-02-14T02:33:12;8.18;;;4.00;;
65583;SDS011;73032;43.592;1.458;2024-02-14T02:35:41;8.35;;;3.92;;
65583;SDS011;73032;43.592;1.458;2024-02-14T02:38:08;6.95;;;3.80;;
65583;SDS011;73032;43.592;1.458;2024-02-14T02:40:35;6.40;;;3.50;;
65583;SDS011;73032;43.592;1.458;2024-02-14T02:43:02;7.43;;;3.53;;
65583;SDS011;73032;43.592;1.458;2024-02-14T02:45:29;8.05;;;4.15;;
65583;SDS011;73032;43.592;1.458;2024-02-14T02:47:56;7.57;;;3.85;;
65583;SDS011;73032;43.592;1.458;2024-02-14T02:50:23;10.57;;;4.28;;
65583;SDS011;73032;43.592;1.458;2024-02-14T02:52:49;6.95;;;3.80;;
65583;SDS011;73032;43.592;1.458;2024-02-14T02:55:16;6.85;;;3.83;;
65583;SDS011;73032;43.592;1.458;2024-02-14T02:57:45;7.43;;;3.58;;
65583;SDS011;73032;43.592;1.458;2024-02-14T03:00:12;8.82;;;3.90;;
65583;SDS011;73032;43.592;1.458;2024-02-14T03:02:40;6.32;;;3.40;;
65583;SDS011;73032;43.592;1.458;2024-02-14T03:05:12;8.30;;;4.03;;
65583;SDS011;73032;43.592;1.458;2024-02-14T03:07:46;6.85;;;3.63;;
65583;SDS011;73032;43.592;1.458;2024-02-14T03:10:14;7.90;;;3.60;;
65583;SDS011;73032;43.592;1.458;2024-02-14T03:12:47;6.07;;;3.40;;
65583;SDS011;73032;43.592;1.458;2024-02-14T03:15:15;7.22;;;3.55;;
65583;SDS011;73032;43.592;1.458;2024-02-14T03:17:42;5.68;;;3.40;;
65583;SDS011;73032;43.592;1.458;2024-02-14T03:20:10;9.80;;;3.30;;
65583;SDS011;73032;43.592;1.458;2024-02-14T03:22:43;5.20;;;2.97;;
65583;SDS011;73032;43.592;1.458;2024-02-14T03:25:16;5.68;;;3.13;;
65583;SDS011;73032;43.592;1.458;2024-02-14T03:27:44;6.85;;;3.35;;
65583;SDS011;73032;43.592;1.458;2024-02-14T03:30:17;4.93;;;3.03;;
65583;SDS011;73032;43.592;1.458;2024-02-14T03:32:48;6.07;;;3.22;;
65583;SDS011;73032;43.592;1.458;2024-02-14T03:35:15;4.32;;;2.75;;
65583;SDS011;73032;43.592;1.458;2024-02-14T03:37:43;4.70;;;2.67;;
65583;SDS011;73032;43.592;1.458;2024-02-14T03:40:14;4.97;;;2.65;;
65583;SDS011;73032;43.592;1.458;2024-02-14T03:42:44;4.65;;;2.60;;
65583;SDS011;73032;43.592;1.458;2024-02-14T03:45:11;5.03;;;2.92;;
65583;SDS011;73032;43.592;1.458;2024-02-14T03:47:41;4.13;;;2.47;;
65583;SDS011;73032;43.592;1.458;2024-02-14T03:50:11;7.27;;;2.63;;
65583;SDS011;73032;43.592;1.458;2024-02-14T03:52:40;4.43;;;2.47;;
65583;SDS011;73032;43.592;1.458;2024-02-14T03:55:09;5.55;;;2.83;;
65583;SDS011;73032;43.592;1.458;2024-02-14T03:57:40;6.30;;;2.88;;
65583;SDS011;73032;43.592;1.458;2024-02-14T04:00:10;4.85;;;2.50;;
65583;SDS011;73032;43.592;1.458;2024-02-14T04:02:40;6.68;;;2.83;;
65583;SDS011;73032;43.592;1.458;2024-02-14T04:05:07;4.88;;;2.72;;
65583;SDS011;73032;43.592;1.458;2024-02-14T04:07:35;4.85;;;2.70;;
65583;SDS011;73032;43.592;1.458;2024-02-14T04:10:03;5.70;;;2.58;;
65583;SDS011;73032;43.592;1.458;2024-02-14T04:12:30;5.32;;;2.53;;
65583;SDS011;73032;43.592;1.458;2024-02-14T04:14:57;6.00;;;3.15;;
65583;SDS011;73032;43.592;1.458;2024-02-14T04:17:25;6.03;;;3.10;;
65583;SDS011;73032;43.592;1.458;2024-02-14T04:19:52;5.45;;;2.95;;
65583;SDS011;73032;43.592;1.458;2024-02-14T04:22:18;5.85;;;2.85;;
65583;SDS011;73032;43.592;1.458;2024-02-14T04:24:45;5.25;;;2.90;;
65583;SDS011;73032;43.592;1.458;2024-02-14T04:27:12;6.85;;;3.00;;
65583;SDS011;73032;43.592;1.458;2024-02-14T04:29:39;5.80;;;2.88;;
65583;SDS011;73032;43.592;1.458;2024-02-14T04:32:05;4.90;;;2.67;;
65583;SDS011;73032;43.592;1.458;2024-02-14T04:34:32;4.90;;;2.63;;
65583;SDS011;73032;43.592;1.458;2024-02-14T04:36:59;4.35;;;2.65;;
65583;SDS011;73032;43.592;1.458;2024-02-14T04:39:26;4.40;;;2.78;;
65583;SDS011;73032;43.592;1.458;2024-02-14T04:41:53;4.57;;;2.58;;
65583;SDS011;73032;43.592;1.458;2024-02-14T04:44:30;5.25;;;2.55;;
65583;SDS011;73032;43.592;1.458;2024-02-14T04:46:58;4.50;;;2.40;;
65583;SDS011;73032;43.592;1.458;2024-02-14T04:49:26;5.05;;;2.50;;
65583;SDS011;73032;43.592;1.458;2024-02-14T04:51:55;4.15;;;2.45;;
65583;SDS011;73032;43.592;1.458;2024-02-14T04:54:22;5.18;;;2.83;;
65583;SDS011;73032;43.592;1.458;2024-02-14T04:56:48;5.20;;;2.55;;
65583;SDS011;73032;43.592;1.458;2024-02-14T04:59:21;5.43;;;2.53;;
65583;SDS011;73032;43.592;1.458;2024-02-14T05:01:48;5.03;;;2.67;;
65583;SDS011;73032;43.592;1.458;2024-02-14T05:04:19;4.28;;;2.28;;
65583;SDS011;73032;43.592;1.458;2024-02-14T05:09:15;4.45;;;2.50;;
65583;SDS011;73032;43.592;1.458;2024-02-14T05:11:44;6.10;;;3.17;;
65583;SDS011;73032;43.592;1.458;2024-02-14T05:14:11;5.45;;;2.60;;
65583;SDS011;73032;43.592;1.458;2024-02-14T05:16:37;4.93;;;2.67;;
65583;SDS011;73032;43.592;1.458;2024-02-14T05:19:04;4.47;;;2.33;;
65583;SDS011;73032;43.592;1.458;2024-02-14T05:21:31;4.13;;;2.58;;
65583;SDS011;73032;43.592;1.458;2024-02-14T05:23:58;5.55;;;2.67;;
65583;SDS011;73032;43.592;1.458;2024-02-14T05:26:24;3.95;;;2.40;;
65583;SDS011;73032;43.592;1.458;2024-02-14T05:28:51;3.67;;;2.20;;
65583;SDS011;73032;43.592;1.458;2024-02-14T05:31:18;4.13;;;2.40;;
65583;SDS011;73032;43.592;1.458;2024-02-14T05:33:45;4.82;;;2.45;;
65583;SDS011;73032;43.592;1.458;2024-02-14T05:36:12;5.30;;;2.60;;
65583;SDS011;73032;43.592;1.458;2024-02-14T05:38:38;4.30;;;2.70;;
65583;SDS011;73032;43.592;1.458;2024-02-14T05:41:06;6.85;;;2.85;;
65583;SDS011;73032;43.592;1.458;2024-02-14T05:43:34;4.75;;;2.25;;
65583;SDS011;73032;43.592;1.458;2024-02-14T05:46:01;4.82;;;2.67;;
65583;SDS011;73032;43.592;1.458;2024-02-14T05:48:27;4.85;;;2.83;;
65583;SDS011;73032;43.592;1.458;2024-02-14T05:50:54;4.25;;;2.65;;
65583;SDS011;73032;43.592;1.458;2024-02-14T05:53:21;5.68;;;2.88;;
65583;SDS011;73032;43.592;1.458;2024-02-14T05:55:48;4.57;;;2.33;;
65583;SDS011;73032;43.592;1.458;2024-02-14T05:58:17;5.28;;;2.75;;
65583;SDS011;73032;43.592;1.458;2024-02-14T06:00:43;6.30;;;2.83;;
65583;SDS011;73032;43.592;1.458;2024-02-14T06:03:10;4.50;;;2.38;;
65583;SDS011;73032;43.592;1.458;2024-02-14T06:05:37;5.03;;;2.60;;
65583;SDS011;73032;43.592;1.458;2024-02-14T06:08:04;4.38;;;2.40;;
65583;SDS011;73032;43.592;1.458;2024-02-14T06:10:31;5.65;;;2.58;;
65583;SDS011;73032;43.592;1.458;2024-02-14T06:12:57;4.53;;;2.60;;
65583;SDS011;73032;43.592;1.458;2024-02-14T06:15:25;6.68;;;2.90;;
65583;SDS011;73032;43.592;1.458;2024-02-14T06:17:52;4.93;;;2.70;;
65583;SDS011;73032;43.592;1.458;2024-02-14T06:20:19;4.13;;;2.90;;
65583;SDS011;73032;43.592;1.458;2024-02-14T06:22:48;4.60;;;2.55;;
65583;SDS011;73032;43.592;1.458;2024-02-14T06:25:29;5.07;;;2.60;;
65583;SDS011;73032;43.592;1.458;2024-02-14T06:27:56;4.22;;;2.50;;
65583;SDS011;73032;43.592;1.458;2024-02-14T06:30:22;4.93;;;2.50;;
65583;SDS011;73032;43.592;1.458;2024-02-14T06:32:50;5.55;;;2.78;;
65583;SDS011;73032;43.592;1.458;2024-02-14T06:35:18;4.43;;;2.38;;
65583;SDS011;73032;43.592;1.458;2024-02-14T06:37:46;4.28;;;2.30;;
65583;SDS011;73032;43.592;1.458;2024-02-14T06:40:25;4.03;;;2.30;;
65583;SDS011;73032;43.592;1.458;2024-02-14T06:42:53;4.70;;;2.50;;
65583;SDS011;73032;43.592;1.458;2024-02-14T06:45:21;4.28;;;2.30;;
65583;SDS011;73032;43.592;1.458;2024-02-14T06:47:50;4.53;;;2.10;;
65583;SDS011;73032;43.592;1.458;2024-02-14T06:50:17;3.97;;;2.25;;
65583;SDS011;73032;43.592;1.458;2024-02-14T06:52:43;4.65;;;2.53;;
65583;SDS011;73032;43.592;1.458;2024-02-14T06:55:10;4.05;;;2.28;;
65583;SDS011;73032;43.592;1.458;2024-02-14T06:57:38;4.30;;;2.08;;
65583;SDS011;73032;43.592;1.458;2024-02-14T07:00:05;5.05;;;2.20;;
65583;SDS011;73032;43.592;1.458;2024-02-14T07:02:33;4.60;;;2.42;;
65583;SDS011;73032;43.592;1.458;2024-02-14T07:05:00;3.80;;;2.08;;
65583;SDS011;73032;43.592;1.458;2024-02-14T07:07:28;3.80;;;2.30;;
65583;SDS011;73032;43.592;1.458;2024-02-14T07:09:54;4.82;;;2.50;;
65583;SDS011;73032;43.592;1.458;2024-02-14T07:12:21;4.75;;;2.40;;
65583;SDS011;73032;43.592;1.458;2024-02-14T07:14:48;4.72;;;2.17;;
65583;SDS011;73032;43.592;1.458;2024-02-14T07:17:14;5.03;;;2.30;;
65583;SDS011;73032;43.592;1.458;2024-02-14T07:19:41;8.07;;;4.10;;
65583;SDS011;73032;43.592;1.458;2024-02-14T07:22:14;10.20;;;4.80;;
65583;SDS011;73032;43.592;1.458;2024-02-14T07:24:42;9.10;;;4.18;;
65583;SDS011;73032;43.592;1.458;2024-02-14T07:27:09;8.02;;;3.92;;
65583;SDS011;73032;43.592;1.458;2024-02-14T07:29:37;7.45;;;3.72;;
65583;SDS011;73032;43.592;1.458;2024-02-14T07:32:04;7.95;;;3.42;;
65583;SDS011;73032;43.592;1.458;2024-02-14T07:34:32;6.32;;;3.25;;
65583;SDS011;73032;43.592;1.458;2024-02-14T07:36:59;7.25;;;3.20;;
65583;SDS011;73032;43.592;1.458;2024-02-14T07:39:26;6.05;;;2.92;;
65583;SDS011;73032;43.592;1.458;2024-02-14T07:41:55;5.22;;;2.70;;
65583;SDS011;73032;43.592;1.458;2024-02-14T07:44:23;5.47;;;2.70;;
65583;SDS011;73032;43.592;1.458;2024-02-14T07:46:50;5.40;;;2.90;;
65583;SDS011;73032;43.592;1.458;2024-02-14T07:49:17;6.07;;;2.90;;
65583;SDS011;73032;43.592;1.458;2024-02-14T07:51:43;5.88;;;2.72;;
65583;SDS011;73032;43.592;1.458;2024-02-14T07:54:11;7.35;;;2.70;;
65583;SDS011;73032;43.592;1.458;2024-02-14T07:56:38;4.75;;;2.65;;
65583;SDS011;73032;43.592;1.458;2024-02-14T08:01:35;5.78;;;2.55;;
65583;SDS011;73032;43.592;1.458;2024-02-14T08:04:02;5.40;;;2.58;;
65583;SDS011;73032;43.592;1.458;2024-02-14T08:06:30;5.18;;;2.67;;
65583;SDS011;73032;43.592;1.458;2024-02-14T08:08:57;6.18;;;3.10;;
65583;SDS011;73032;43.592;1.458;2024-02-14T08:11:28;6.15;;;2.90;;
65583;SDS011;73032;43.592;1.458;2024-02-14T08:13:55;5.78;;;2.85;;
65583;SDS011;73032;43.592;1.458;2024-02-14T08:16:22;5.03;;;2.67;;
65583;SDS011;73032;43.592;1.458;2024-02-14T08:18:49;8.50;;;3.10;;
65583;SDS011;73032;43.592;1.458;2024-02-14T08:21:17;5.55;;;2.70;;
65583;SDS011;73032;43.592;1.458;2024-02-14T08:23:44;6.75;;;3.20;;
65583;SDS011;73032;43.592;1.458;2024-02-14T08:26:11;9.05;;;4.22;;
65583;SDS011;73032;43.592;1.458;2024-02-14T08:28:37;6.47;;;3.20;;
65583;SDS011;73032;43.592;1.458;2024-02-14T08:31:11;8.30;;;3.20;;
65583;SDS011;73032;43.592;1.458;2024-02-14T08:33:38;7.50;;;3.10;;
65583;SDS011;73032;43.592;1.458;2024-02-14T08:36:05;13.32;;;4.05;;
65583;SDS011;73032;43.592;1.458;2024-02-14T08:38:33;6.35;;;2.90;;
65583;SDS011;73032;43.592;1.458;2024-02-14T08:41:01;6.63;;;2.70;;
65583;SDS011;73032;43.592;1.458;2024-02-14T08:43:29;6.38;;;2.60;;
65583;SDS011;73032;43.592;1.458;2024-02-14T08:45:56;5.30;;;2.20;;
65583;SDS011;73032;43.592;1.458;2024-02-14T08:48:23;5.95;;;2.50;;
65583;SDS011;73032;43.592;1.458;2024-02-14T08:50:51;5.53;;;2.50;;
65583;SDS011;73032;43.592;1.458;2024-02-14T08:53:17;4.78;;;2.50;;
65583;SDS011;73032;43.592;1.458;2024-02-14T08:55:44;5.35;;;2.40;;
65583;SDS011;73032;43.592;1.458;2024-02-14T08:58:11;7.40;;;2.40;;
65583;SDS011;73032;43.592;1.458;2024-02-14T09:00:38;4.60;;;2.15;;
65583;SDS011;73032;43.592;1.458;2024-02-14T09:03:05;4.95;;;2.50;;
65583;SDS011;73032;43.592;1.458;2024-02-14T09:05:33;4.80;;;2.40;;
65583;SDS011;73032;43.592;1.458;2024-02-14T09:08:00;6.00;;;2.30;;
65583;SDS011;73032;43.592;1.458;2024-02-14T09:10:29;6.57;;;2.30;;
65583;SDS011;73032;43.592;1.458;2024-02-14T09:12:58;4.05;;;2.08;;
65583;SDS011;73032;43.592;1.458;2024-02-14T09:15:25;3.80;;;1.92;;
65583;SDS011;73032;43.592;1.458;2024-02-14T09:17:52;5.22;;;2.05;;
65583;SDS011;73032;43.592;1.458;2024-02-14T09:20:19;4.57;;;2.30;;
65583;SDS011;73032;43.592;1.458;2024-02-14T09:22:46;5.57;;;2.53;;
65583;SDS011;73032;43.592;1.458;2024-02-14T09:25:13;5.78;;;2.50;;
65583;SDS011;73032;43.592;1.458;2024-02-14T09:27:40;5.18;;;2.92;;
65583;SDS011;73032;43.592;1.458;2024-02-14T09:30:07;5.13;;;2.33;;
65583;SDS011;73032;43.592;1.458;2024-02-14T09:32:43;5.53;;;2.10;;
65583;SDS011;73032;43.592;1.458;2024-02-14T09:35:11;5.28;;;2.50;;
65583;SDS011;73032;43.592;1.458;2024-02-14T09:37:38;5.90;;;2.22;;
65583;SDS011;73032;43.592;1.458;2024-02-14T09:40:07;5.38;;;2.90;;
65583;SDS011;73032;43.592;1.458;2024-02-14T09:42:47;4.15;;;2.30;;
65583;SDS011;73032;43.592;1.458;2024-02-14T09:47:51;5.35;;;2.63;;
65583;SDS011;73032;43.592;1.458;2024-02-14T09:50:19;6.18;;;2.90;;
65583;SDS011;73032;43.592;1.458;2024-02-14T09:52:49;5.60;;;2.60;;
65583;SDS011;73032;43.592;1.458;2024-02-14T09:55:16;6.38;;;2.75;;
65583;SDS011;73032;43.592;1.458;2024-02-14T09:57:43;10.30;;;2.80;;
65583;SDS011;73032;43.592;1.458;2024-02-14T10:00:11;5.90;;;3.10;;
65583;SDS011;73032;43.592;1.458;2024-02-14T10:02:41;7.80;;;3.20;;
65583;SDS011;73032;43.592;1.458;2024-02-14T10:05:08;7.18;;;3.15;;
65583;SDS011;73032;43.592;1.458;2024-02-14T10:07:41;8.95;;;3.42;;
65583;SDS011;73032;43.592;1.458;2024-02-14T10:10:09;8.77;;;3.58;;
65583;SDS011;73032;43.592;1.458;2024-02-14T10:12:36;7.18;;;3.15;;
65583;SDS011;73032;43.592;1.458;2024-02-14T10:15:03;6.03;;;2.80;;
65583;SDS011;73032;43.592;1.458;2024-02-14T10:17:32;10.52;;;3.00;;
65583;SDS011;73032;43.592;1.458;2024-02-14T10:20:01;7.38;;;2.92;;
65583;SDS011;73032;43.592;1.458;2024-02-14T10:22:33;9.02;;;2.85;;
65583;SDS011;73032;43.592;1.458;2024-02-14T10:25:02;7.78;;;2.72;;
65583;SDS011;73032;43.592;1.458;2024-02-14T10:27:39;11.75;;;2.70;;
65583;SDS011;73032;43.592;1.458;2024-02-14T10:30:07;8.05;;;2.90;;
65583;SDS011;73032;43.592;1.458;2024-02-14T10:32:39;6.65;;;2.70;;
65583;SDS011;73032;43.592;1.458;2024-02-14T10:37:38;5.80;;;2.55;;
65583;SDS011;73032;43.592;1.458;2024-02-14T10:40:05;4.55;;;2.42;;
65583;SDS011;73032;43.592;1.458;2024-02-14T10:42:33;5.10;;;2.15;;
65583;SDS011;73032;43.592;1.458;2024-02-14T10:45:02;6.93;;;2.25;;
65583;SDS011;73032;43.592;1.458;2024-02-14T10:47:31;4.35;;;2.15;;
65583;SDS011;73032;43.592;1.458;2024-02-14T10:50:04;6.53;;;2.10;;
65583;SDS011;73032;43.592;1.458;2024-02-14T10:52:34;3.15;;;1.70;;
65583;SDS011;73032;43.592;1.458;2024-02-14T10:55:03;4.85;;;2.08;;
65583;SDS011;73032;43.592;1.458;2024-02-14T10:57:31;3.10;;;1.85;;
65583;SDS011;73032;43.592;1.458;2024-02-14T11:00:11;3.38;;;2.05;;
65583;SDS011;73032;43.592;1.458;2024-02-14T11:02:41;3.83;;;2.40;;
65583;SDS011;73032;43.592;1.458;2024-02-14T11:05:12;4.78;;;2.25;;
65583;SDS011;73032;43.592;1.458;2024-02-14T11:07:47;3.50;;;1.92;;
65583;SDS011;73032;43.592;1.458;2024-02-14T11:10:16;5.88;;;2.35;;
65583;SDS011;73032;43.592;1.458;2024-02-14T11:12:43;4.95;;;2.00;;
65583;SDS011;73032;43.592;1.458;2024-02-14T11:17:45;2.65;;;1.67;;
65583;SDS011;73032;43.592;1.458;2024-02-14T11:20:15;4.30;;;2.08;;
65583;SDS011;73032;43.592;1.458;2024-02-14T11:22:56;10.48;;;7.25;;
65583;SDS011;73032;43.592;1.458;2024-02-14T11:25:31;21.05;;;16.42;;
65583;SDS011;73032;43.592;1.458;2024-02-14T11:28:02;16.60;;;13.35;;
65583;SDS011;73032;43.592;1.458;2024-02-14T11:30:50;5.72;;;2.65;;
65583;SDS011;73032;43.592;1.458;2024-02-14T11:35:46;3.08;;;2.05;;
65583;SDS011;73032;43.592;1.458;2024-02-14T11:38:15;4.55;;;1.70;;
65583;SDS011;73032;43.592;1.458;2024-02-14T11:40:42;2.88;;;1.70;;
65583;SDS011;73032;43.592;1.458;2024-02-14T11:43:13;3.28;;;1.70;;
65583;SDS011;73032;43.592;1.458;2024-02-14T11:45:41;2.88;;;1.50;;
65583;SDS011;73032;43.592;1.458;2024-02-14T11:48:12;4.30;;;1.40;;
65583;SDS011;73032;43.592;1.458;2024-02-14T11:50:40;2.53;;;1.30;;
65583;SDS011;73032;43.592;1.458;2024-02-14T11:53:09;4.28;;;1.50;;
65583;SDS011;73032;43.592;1.458;2024-02-14T11:55:42;2.40;;;1.23;;
65583;SDS011;73032;43.592;1.458;2024-02-14T11:58:09;2.50;;;1.23;;
65583;SDS011;73032;43.592;1.458;2024-02-14T12:00:40;2.17;;;1.40;;
65583;SDS011;73032;43.592;1.458;2024-02-14T12:03:15;3.17;;;1.50;;
65583;SDS011;73032;43.592;1.458;2024-02-14T12:05:44;2.85;;;1.45;;
65583;SDS011;73032;43.592;1.458;2024-02-14T12:08:14;2.72;;;1.60;;
65583;SDS011;73032;43.592;1.458;2024-02-14T12:10:45;2.58;;;1.30;;
65583;SDS011;73032;43.592;1.458;2024-02-14T12:13:22;1.75;;;1.10;;
65583;SDS011;73032;43.592;1.458;2024-02-14T12:15:50;2.22;;;1.10;;
65583;SDS011;73032;43.592;1.458;2024-02-14T12:18:18;1.95;;;1.00;;
65583;SDS011;73032;43.592;1.458;2024-02-14T12:20:47;2.72;;;1.05;;
65583;SDS011;73032;43.592;1.458;2024-02-14T12:23:21;2.40;;;1.02;;
65583;SDS011;73032;43.592;1.458;2024-02-14T12:25:50;1.77;;;1.10;;
65583;SDS011;73032;43.592;1.458;2024-02-14T12:28:17;1.45;;;0.90;;
65583;SDS011;73032;43.592;1.458;2024-02-14T12:30:45;1.90;;;0.90;;
65583;SDS011;73032;43.592;1.458;2024-02-14T12:33:18;1.80;;;0.88;;
65583;SDS011;73032;43.592;1.458;2024-02-14T12:35:46;1.42;;;0.90;;
65583;SDS011;73032;43.592;1.458;2024-02-14T12:38:15;2.13;;;0.80;;
65583;SDS011;73032;43.592;1.458;2024-02-14T12:40:43;2.78;;;0.88;;
65583;SDS011;73032;43.592;1.458;2024-02-14T12:43:14;1.65;;;0.80;;
65583;SDS011;73032;43.592;1.458;2024-02-14T12:45:42;1.77;;;1.00;;
65583;SDS011;73032;43.592;1.458;2024-02-14T12:48:10;1.60;;;0.90;;
65583;SDS011;73032;43.592;1.458;2024-02-14T12:50:41;1.65;;;1.00;;
65583;SDS011;73032;43.592;1.458;2024-02-14T12:53:15;1.45;;;0.80;;
65583;SDS011;73032;43.592;1.458;2024-02-14T12:55:41;1.98;;;1.00;;
65583;SDS011;73032;43.592;1.458;2024-02-14T12:58:08;2.10;;;0.90;;
65583;SDS011;73032;43.592;1.458;2024-02-14T13:00:36;1.40;;;0.88;;
65583;SDS011;73032;43.592;1.458;2024-02-14T13:03:04;1.63;;;1.00;;
65583;SDS011;73032;43.592;1.458;2024-02-14T13:05:32;1.65;;;1.00;;
65583;SDS011;73032;43.592;1.458;2024-02-14T13:07:59;2.35;;;0.93;;
65583;SDS011;73032;43.592;1.458;2024-02-14T13:10:26;2.13;;;0.95;;
65583;SDS011;73032;43.592;1.458;2024-02-14T13:12:53;5.90;;;1.20;;
65583;SDS011;73032;43.592;1.458;2024-02-14T13:15:23;1.63;;;1.10;;
65583;SDS011;73032;43.592;1.458;2024-02-14T13:17:50;1.88;;;0.90;;
65583;SDS011;73032;43.592;1.458;2024-02-14T13:20:17;1.80;;;0.90;;
65583;SDS011;73032;43.592;1.458;2024-02-14T13:22:44;2.20;;;0.90;;
65583;SDS011;73032;43.592;1.458;2024-02-14T13:25:12;5.60;;;1.10;;
65583;SDS011;73032;43.592;1.458;2024-02-14T13:27:42;1.83;;;0.90;;
65583;SDS011;73032;43.592;1.458;2024-02-14T13:30:10;2.33;;;1.10;;
65583;SDS011;73032;43.592;1.458;2024-02-14T13:32:37;1.77;;;1.00;;
65583;SDS011;73032;43.592;1.458;2024-02-14T13:35:05;1.25;;;0.80;;
65583;SDS011;73032;43.592;1.458;2024-02-14T13:37:32;1.52;;;1.05;;
65583;SDS011;73032;43.592;1.458;2024-02-14T13:39:59;1.40;;;0.90;;
65583;SDS011;73032;43.592;1.458;2024-02-14T13:42:27;2.00;;;0.80;;
65583;SDS011;73032;43.592;1.458;2024-02-14T13:44:54;1.85;;;0.93;;
65583;SDS011;73032;43.592;1.458;2024-02-14T13:47:21;1.00;;;0.80;;
65583;SDS011;73032;43.592;1.458;2024-02-14T13:49:49;2.28;;;1.05;;
65583;SDS011;73032;43.592;1.458;2024-02-14T13:52:16;1.90;;;0.90;;
65583;SDS011;73032;43.592;1.458;2024-02-14T13:54:44;2.78;;;0.93;;
65583;SDS011;73032;43.592;1.458;2024-02-14T13:57:10;1.38;;;0.90;;
65583;SDS011;73032;43.592;1.458;2024-02-14T13:59:38;1.88;;;0.90;;
65583;SDS011;73032;43.592;1.458;2024-02-14T14:02:05;1.00;;;0.70;;
65583;SDS011;73032;43.592;1.458;2024-02-14T14:04:31;1.77;;;1.00;;
65583;SDS011;73032;43.592;1.458;2024-02-14T14:07:01;2.40;;;0.93;;
65583;SDS011;73032;43.592;1.458;2024-02-14T14:09:31;1.75;;;1.10;;
65583;SDS011;73032;43.592;1.458;2024-02-14T14:11:59;2.17;;;0.80;;
65583;SDS011;73032;43.592;1.458;2024-02-14T14:14:26;1.90;;;0.80;;
65583;SDS011;73032;43.592;1.458;2024-02-14T14:16:53;4.47;;;0.98;;
65583;SDS011;73032;43.592;1.458;2024-02-14T14:19:20;1.23;;;0.68;;
65583;SDS011;73032;43.592;1.458;2024-02-14T14:21:47;1.17;;;0.80;;
65583;SDS011;73032;43.592;1.458;2024-02-14T14:24:14;1.55;;;0.80;;
65583;SDS011;73032;43.592;1.458;2024-02-14T14:26:42;1.10;;;0.73;;
65583;SDS011;73032;43.592;1.458;2024-02-14T14:29:09;1.08;;;0.77;;
65583;SDS011;73032;43.592;1.458;2024-02-14T14:31:37;1.48;;;0.80;;
65583;SDS011;73032;43.592;1.458;2024-02-14T14:34:03;1.55;;;0.70;;
65583;SDS011;73032;43.592;1.458;2024-02-14T14:36:31;1.00;;;0.63;;
65583;SDS011;73032;43.592;1.458;2024-02-14T14:38:57;1.60;;;0.80;;
65583;SDS011;73032;43.592;1.458;2024-02-14T14:41:25;1.17;;;0.70;;
65583;SDS011;73032;43.592;1.458;2024-02-14T14:43:51;1.20;;;0.70;;
65583;SDS011;73032;43.592;1.458;2024-02-14T14:46:18;2.53;;;0.90;;
65583;SDS011;73032;43.592;1.458;2024-02-14T14:48:46;1.80;;;0.80;;
65583;SDS011;73032;43.592;1.458;2024-02-14T14:51:14;1.08;;;0.60;;
65583;SDS011;73032;43.592;1.458;2024-02-14T14:53:41;0.98;;;0.65;;
65583;SDS011;73032;43.592;1.458;2024-02-14T14:56:08;2.38;;;0.73;;
65583;SDS011;73032;43.592;1.458;2024-02-14T14:58:35;2.15;;;0.95;;
65583;SDS011;73032;43.592;1.458;2024-02-14T15:01:02;2.08;;;1.10;;
65583;SDS011;73032;43.592;1.458;2024-02-14T15:03:32;2.17;;;1.23;;
65583;SDS011;73032;43.592;1.458;2024-02-14T15:06:00;1.65;;;1.00;;